Time;durP1;ratioP1;P1;durP2;ratioP2;P2;SDS_P1;SDS_P2;PMS_P1;PMS_P2;Temp;Humidity;BMP_temperature;BMP_pressure;BME280_temperature;BME280_humidity;BME280_pressure;Samples;Min_cycle;Max_cycle;Signal;HPM_P1;HPM_P2
2023/10/01 00:00:43;;;;;;;11.48;5.65;;;14.90;99.90;;;;;;5102122;28;20458;-68
2023/10/01 00:03:09;;;;;;;11.85;6.80;;;14.90;99.90;;;;;;5103611;28;20042;-68
2023/10/01 00:05:35;;;;;;;14.10;6.72;;;14.90;99.90;;;;;;5099139;28;20039;-68
2023/10/01 00:08:02;;;;;;;15.07;6.88;;;14.80;99.90;;;;;;5100727;27;20112;-68
2023/10/01 00:10:28;;;;;;;14.70;6.75;;;14.80;99.90;;;;;;5101411;28;20032;-68
2023/10/01 00:12:54;;;;;;;18.27;7.10;;;14.70;99.90;;;;;;5135689;27;20423;-68
2023/10/01 00:15:23;;;;;;;15.25;6.85;;;14.70;99.90;;;;;;5103543;28;20551;-68
2023/10/01 00:17:48;;;;;;;17.73;6.45;;;14.70;99.90;;;;;;5086473;28;20047;-68
2023/10/01 00:20:20;;;;;;;17.15;6.80;;;14.70;99.90;;;;;;5133974;27;20182;-68
2023/10/01 00:22:49;;;;;;;12.90;7.30;;;14.70;99.90;;;;;;5100998;28;20069;-68
2023/10/01 00:25:16;;;;;;;18.13;7.35;;;14.80;99.90;;;;;;5132575;27;20066;-68
2023/10/01 00:27:42;;;;;;;12.60;6.70;;;14.70;99.90;;;;;;5104115;28;20040;-68
2023/10/01 00:30:10;;;;;;;11.73;6.53;;;14.70;99.90;;;;;;5102768;27;20050;-68
2023/10/01 00:32:36;;;;;;;16.65;7.45;;;14.70;99.90;;;;;;5104206;28;20077;-68
2023/10/01 00:35:03;;;;;;;13.45;7.07;;;14.70;99.90;;;;;;5135665;27;20482;-68
2023/10/01 00:37:29;;;;;;;13.77;6.32;;;14.80;99.90;;;;;;5100703;28;20039;-68
2023/10/01 00:39:54;;;;;;;16.20;6.78;;;14.80;99.90;;;;;;5100670;28;20044;-68
2023/10/01 00:42:21;;;;;;;14.50;7.28;;;14.70;99.90;;;;;;5099930;27;20044;-68
2023/10/01 00:44:47;;;;;;;16.02;7.45;;;14.70;99.90;;;;;;5101801;28;20054;-68
2023/10/01 00:47:13;;;;;;;11.30;6.05;;;14.70;99.90;;;;;;5099715;28;20040;-68
2023/10/01 00:49:46;;;;;;;13.60;7.35;;;14.70;99.90;;;;;;5101236;27;20040;-68
2023/10/01 00:52:18;;;;;;;12.25;7.65;;;14.60;99.90;;;;;;5102293;28;20129;-68
2023/10/01 00:54:44;;;;;;;12.52;6.80;;;14.60;99.90;;;;;;5102660;27;20048;-68
2023/10/01 00:57:10;;;;;;;15.07;6.68;;;14.60;99.90;;;;;;5102054;28;20043;-68
2023/10/01 00:59:36;;;;;;;15.38;7.22;;;14.60;99.90;;;;;;5102260;28;20043;-68
2023/10/01 01:02:07;;;;;;;12.90;6.43;;;14.60;99.90;;;;;;5103914;28;20051;-68
2023/10/01 01:04:36;;;;;;;14.63;6.10;;;14.60;99.90;;;;;;5133416;27;20039;-68
2023/10/01 01:07:14;;;;;;;17.17;7.82;;;14.60;99.90;;;;;;5102033;28;20043;-68
2023/10/01 01:09:41;;;;;;;14.85;6.70;;;14.60;99.90;;;;;;5101727;28;20481;-68
2023/10/01 01:12:07;;;;;;;12.25;6.55;;;14.60;99.90;;;;;;5105625;28;20050;-68
2023/10/01 01:14:33;;;;;;;12.43;6.43;;;14.60;99.90;;;;;;5105481;28;20043;-68
2023/10/01 01:16:59;;;;;;;11.40;6.18;;;14.60;99.90;;;;;;5101957;28;20490;-67
2023/10/01 01:19:26;;;;;;;12.18;6.97;;;14.60;99.90;;;;;;5101738;28;20169;-68
2023/10/01 01:21:52;;;;;;;13.45;6.90;;;14.70;99.90;;;;;;5129188;27;20075;-68
2023/10/01 01:24:18;;;;;;;18.45;6.82;;;14.70;99.90;;;;;;5101711;28;20060;-68
2023/10/01 01:26:51;;;;;;;17.08;8.23;;;14.70;99.90;;;;;;5103647;28;20167;-68
2023/10/01 01:29:29;;;;;;;18.80;6.95;;;14.70;99.90;;;;;;5101046;28;20039;-68
2023/10/01 01:32:07;;;;;;;16.15;7.82;;;14.70;99.90;;;;;;5103688;28;20071;-68
2023/10/01 01:34:34;;;;;;;12.27;7.07;;;14.70;99.90;;;;;;5102349;28;20052;-68
2023/10/01 01:37:05;;;;;;;15.95;7.90;;;14.70;99.90;;;;;;5101158;28;20043;-68
2023/10/01 01:39:51;;;;;;;17.27;7.57;;;14.70;99.90;;;;;;5101740;28;20536;-69
2023/10/01 01:42:21;;;;;;;12.93;8.77;;;14.70;99.90;;;;;;5102022;28;20501;-68
2023/10/01 01:47:33;;;;;;;13.40;7.63;;;14.70;99.90;;;;;;5108832;27;20036;-68
2023/10/01 01:50:09;;;;;;;14.20;7.80;;;14.70;99.90;;;;;;5104769;27;20028;-68
2023/10/01 01:52:36;;;;;;;9.32;7.25;;;14.80;99.90;;;;;;5106810;28;20397;-67
2023/10/01 01:55:22;;;;;;;12.88;7.53;;;14.80;99.90;;;;;;5103704;28;20040;-68
2023/10/01 01:58:02;;;;;;;15.68;8.35;;;14.80;99.90;;;;;;5106219;27;20055;-68
2023/10/01 02:00:31;;;;;;;13.05;7.72;;;14.80;99.90;;;;;;5103620;27;20114;-67
2023/10/01 02:02:59;;;;;;;11.75;7.35;;;14.70;99.90;;;;;;5105126;27;20044;-67
2023/10/01 02:05:28;;;;;;;14.73;8.30;;;14.80;99.90;;;;;;5139662;27;20054;-67
2023/10/01 02:07:54;;;;;;;10.82;7.38;;;14.80;99.90;;;;;;5106635;27;20024;-67
2023/10/01 02:10:20;;;;;;;11.10;7.53;;;14.80;99.90;;;;;;5106635;27;20039;-68
2023/10/01 02:12:50;;;;;;;13.23;7.70;;;14.80;99.90;;;;;;5105072;28;20055;-68
2023/10/01 02:15:18;;;;;;;11.23;7.78;;;14.80;99.90;;;;;;5104179;28;20044;-68
2023/10/01 02:17:43;;;;;;;11.63;7.35;;;14.80;99.90;;;;;;5108131;27;20036;-67
2023/10/01 02:20:14;;;;;;;14.30;7.68;;;14.90;99.90;;;;;;5103538;27;22002;-67
2023/10/01 02:22:40;;;;;;;15.90;9.13;;;14.90;99.90;;;;;;5103370;27;20047;-67
2023/10/01 02:25:10;;;;;;;12.77;8.70;;;14.80;99.90;;;;;;5113338;27;20032;-67
2023/10/01 02:27:46;;;;;;;11.15;8.27;;;14.90;99.90;;;;;;5105458;28;20067;-67
2023/10/01 02:30:16;;;;;;;10.77;7.63;;;14.80;99.90;;;;;;5107390;27;20495;-67
2023/10/01 02:35:35;;;;;;;10.45;8.48;;;14.90;99.90;;;;;;5106918;28;20035;-68
2023/10/01 02:38:05;;;;;;;11.52;8.77;;;14.90;99.90;;;;;;5137579;27;20061;-68
2023/10/01 02:40:37;;;;;;;11.93;8.52;;;14.90;99.90;;;;;;5104110;27;20036;-67
2023/10/01 02:43:14;;;;;;;15.50;9.68;;;14.80;99.90;;;;;;5136716;27;20047;-68
2023/10/01 02:45:42;;;;;;;13.68;8.70;;;14.80;99.90;;;;;;5136007;27;20036;-67
2023/10/01 02:48:16;;;;;;;13.35;9.55;;;14.80;99.90;;;;;;5102932;28;20040;-67
2023/10/01 02:50:52;;;;;;;12.98;9.30;;;14.80;99.90;;;;;;5105674;28;20047;-67
2023/10/01 02:53:22;;;;;;;12.30;8.30;;;14.90;99.90;;;;;;5105714;28;20036;-67
2023/10/01 02:55:51;;;;;;;12.70;8.60;;;14.80;99.90;;;;;;5116135;27;20051;-68
2023/10/01 02:58:25;;;;;;;11.63;8.25;;;14.90;99.90;;;;;;5138507;27;20155;-68
2023/10/01 03:00:53;;;;;;;12.95;9.20;;;14.90;99.90;;;;;;5101032;27;20043;-68
2023/10/01 03:03:19;;;;;;;10.60;8.73;;;14.90;99.90;;;;;;5103288;27;20078;-68
2023/10/01 03:05:46;;;;;;;14.15;9.40;;;14.90;99.90;;;;;;5105153;28;20083;-67
2023/10/01 03:10:58;;;;;;;12.13;8.35;;;14.90;99.90;;;;;;5136050;27;20048;-67
2023/10/01 03:13:30;;;;;;;9.40;7.80;;;14.90;99.90;;;;;;5136529;27;20051;-68
2023/10/01 03:18:46;;;;;;;10.57;7.70;;;14.90;99.90;;;;;;5137433;27;20055;-68
2023/10/01 03:21:19;;;;;;;12.15;8.55;;;14.90;99.90;;;;;;5103758;28;20040;-68
2023/10/01 03:23:52;;;;;;;14.68;8.15;;;14.90;99.90;;;;;;5104388;28;20116;-68
2023/10/01 03:26:17;;;;;;;12.13;7.30;;;14.90;99.90;;;;;;5101863;28;20527;-68
2023/10/01 03:31:28;;;;;;;12.43;8.10;;;15.10;99.90;;;;;;5137183;27;20440;-68
2023/10/01 03:33:54;;;;;;;8.25;6.50;;;14.90;99.90;;;;;;5106121;28;20049;-68
2023/10/01 03:36:25;;;;;;;12.45;8.00;;;15.00;99.90;;;;;;5103690;27;20028;-68
2023/10/01 03:38:57;;;;;;;9.85;7.22;;;15.00;99.90;;;;;;5106302;27;20054;-68
2023/10/01 03:41:24;;;;;;;9.07;6.63;;;15.00;99.90;;;;;;5104547;28;20042;-68
2023/10/01 03:44:08;;;;;;;9.68;7.43;;;15.00;99.90;;;;;;5103099;28;20073;-68
2023/10/01 03:46:45;;;;;;;11.68;7.22;;;14.90;99.90;;;;;;5101831;28;20088;-68
2023/10/01 03:52:09;;;;;;;13.15;8.18;;;15.00;99.90;;;;;;5091304;27;20035;-68
2023/10/01 03:55:00;;;;;;;18.05;8.00;;;15.00;99.90;;;;;;5099853;27;20529;-68
2023/10/01 03:57:29;;;;;;;9.90;7.05;;;15.00;99.90;;;;;;5102394;28;20058;-68
2023/10/01 03:59:57;;;;;;;12.23;7.07;;;15.00;99.90;;;;;;5097226;27;20043;-68
2023/10/01 04:05:30;;;;;;;9.90;6.25;;;15.00;99.90;;;;;;5104773;27;20084;-68
2023/10/01 04:07:59;;;;;;;9.37;6.10;;;15.00;99.90;;;;;;5102135;28;20039;-68
2023/10/01 04:12:54;;;;;;;9.32;6.38;;;15.00;99.90;;;;;;5102190;27;20134;-68
2023/10/01 04:15:30;;;;;;;10.02;6.95;;;15.00;99.90;;;;;;5102084;28;20397;-67
2023/10/01 04:20:47;;;;;;;8.85;5.85;;;15.00;99.90;;;;;;5104849;28;20059;-68
2023/10/01 04:23:24;;;;;;;13.55;6.30;;;14.90;99.90;;;;;;5105832;27;20856;-68
2023/10/01 04:25:54;;;;;;;9.25;6.22;;;14.90;99.90;;;;;;5103705;27;20482;-67
2023/10/01 04:28:20;;;;;;;10.30;5.97;;;15.10;99.90;;;;;;5101712;27;20028;-68
2023/10/01 04:30:51;;;;;;;11.57;6.30;;;15.00;99.90;;;;;;5103063;27;20116;-68
2023/10/01 04:33:18;;;;;;;14.13;7.00;;;15.00;99.90;;;;;;5103494;28;20421;-68
2023/10/01 04:35:56;;;;;;;12.38;7.57;;;15.00;99.90;;;;;;5106734;28;20047;-68
2023/10/01 04:38:22;;;;;;;10.93;6.57;;;15.00;99.90;;;;;;5101644;28;20531;-68
2023/10/01 04:40:49;;;;;;;12.45;7.10;;;15.00;99.90;;;;;;5134822;27;20069;-68
2023/10/01 04:43:20;;;;;;;10.70;6.15;;;15.00;99.90;;;;;;5139257;27;20046;-68
2023/10/01 04:45:47;;;;;;;8.90;6.28;;;15.00;99.90;;;;;;5102271;27;20607;-68
2023/10/01 04:48:16;;;;;;;13.40;6.88;;;14.90;99.90;;;;;;5101696;27;20039;-68
2023/10/01 04:50:50;;;;;;;14.80;7.03;;;15.10;99.90;;;;;;5101027;28;20044;-68
2023/10/01 04:53:19;;;;;;;12.10;8.02;;;15.00;99.90;;;;;;5106040;27;20039;-68
2023/10/01 04:55:57;;;;;;;13.15;6.93;;;15.00;99.90;;;;;;5102862;28;20057;-68
2023/10/01 04:58:23;;;;;;;11.10;7.50;;;15.00;99.90;;;;;;5100830;28;20044;-68
2023/10/01 05:00:50;;;;;;;14.77;7.88;;;15.00;99.90;;;;;;5100514;28;20134;-68
2023/10/01 05:03:16;;;;;;;10.27;7.13;;;15.00;99.90;;;;;;5099553;27;20043;-68
2023/10/01 05:05:48;;;;;;;10.32;7.07;;;15.00;99.90;;;;;;5104381;28;20051;-68
2023/10/01 05:08:14;;;;;;;14.25;7.88;;;15.00;99.90;;;;;;5101478;28;20062;-68
2023/10/01 05:10:56;;;;;;;11.70;6.90;;;15.00;99.90;;;;;;5100811;28;20039;-68
2023/10/01 05:13:23;;;;;;;14.90;7.30;;;15.00;99.90;;;;;;5133946;27;20089;-68
2023/10/01 05:15:57;;;;;;;13.10;6.88;;;15.00;99.90;;;;;;5100676;28;20468;-68
2023/10/01 05:18:26;;;;;;;9.20;6.72;;;15.00;99.90;;;;;;5102147;27;20505;-68
2023/10/01 05:20:58;;;;;;;13.63;6.88;;;15.00;99.90;;;;;;5106336;28;20039;-68
2023/10/01 05:23:24;;;;;;;12.00;7.22;;;15.00;99.90;;;;;;5105595;28;20043;-68
2023/10/01 05:25:50;;;;;;;12.32;7.20;;;15.00;99.90;;;;;;5106929;27;20130;-68
2023/10/01 05:28:31;;;;;;;11.90;7.30;;;15.00;99.90;;;;;;5106504;28;20512;-68
2023/10/01 05:31:15;;;;;;;11.43;7.38;;;14.90;99.90;;;;;;5105445;28;20038;-68
2023/10/01 05:33:45;;;;;;;14.75;7.20;;;15.00;99.90;;;;;;5106976;27;20516;-68
2023/10/01 05:36:13;;;;;;;13.43;7.13;;;15.00;99.90;;;;;;5106618;27;20131;-68
2023/10/01 05:38:40;;;;;;;13.07;7.55;;;15.00;99.90;;;;;;5106467;28;20574;-67
2023/10/01 05:41:13;;;;;;;12.48;7.40;;;15.00;99.90;;;;;;5103798;28;20070;-67
2023/10/01 05:43:50;;;;;;;10.20;7.90;;;15.00;99.90;;;;;;5100777;28;20458;-67
2023/10/01 05:46:17;;;;;;;10.90;6.93;;;14.90;99.90;;;;;;5100573;27;20051;-68
2023/10/01 05:48:49;;;;;;;13.93;6.88;;;15.00;99.90;;;;;;5101992;28;20436;-67
2023/10/01 05:51:18;;;;;;;10.57;6.88;;;15.00;99.90;;;;;;5086120;28;20443;-68
2023/10/01 05:53:44;;;;;;;13.55;6.10;;;15.00;99.90;;;;;;5098987;27;20093;-68
2023/10/01 05:56:11;;;;;;;12.23;6.07;;;15.00;99.90;;;;;;5107064;27;20040;-68
2023/10/01 05:58:41;;;;;;;11.52;6.90;;;15.00;99.90;;;;;;5102124;27;20046;-68
2023/10/01 06:01:16;;;;;;;17.05;6.88;;;15.00;99.90;;;;;;5121082;27;20046;-68
2023/10/01 06:03:43;;;;;;;11.02;7.00;;;15.00;99.90;;;;;;5104633;27;20047;-68
2023/10/01 06:06:25;;;;;;;13.93;7.65;;;15.00;99.90;;;;;;5108355;27;20146;-68
2023/10/01 06:08:58;;;;;;;14.30;7.28;;;15.00;99.90;;;;;;5134652;27;20075;-68
2023/10/01 06:17:00;;;;;;;10.23;6.57;;;15.10;99.90;;;;;;5140187;27;20134;-68
2023/10/01 06:19:33;;;;;;;11.73;6.43;;;15.10;99.90;;;;;;5132485;27;20449;-68
2023/10/01 06:22:22;;;;;;;10.10;6.32;;;15.00;99.90;;;;;;5103686;28;20039;-68
2023/10/01 06:24:48;;;;;;;13.27;6.35;;;15.10;99.90;;;;;;5102357;28;20043;-68
2023/10/01 06:27:17;;;;;;;11.10;6.32;;;15.10;99.90;;;;;;5100212;28;20055;-68
2023/10/01 06:29:50;;;;;;;10.38;5.88;;;15.10;99.90;;;;;;5098542;27;20046;-68
2023/10/01 06:32:23;;;;;;;12.80;6.68;;;15.10;99.90;;;;;;5098671;27;20047;-67
2023/10/01 06:34:51;;;;;;;12.25;6.45;;;15.00;99.90;;;;;;5100413;28;20114;-68
2023/10/01 06:37:19;;;;;;;15.52;7.00;;;15.10;99.90;;;;;;5099867;27;20043;-68
2023/10/01 06:39:46;;;;;;;11.63;5.97;;;15.10;99.90;;;;;;5135186;27;20051;-68
2023/10/01 06:42:18;;;;;;;10.50;6.47;;;15.10;99.90;;;;;;5098838;27;20071;-68
2023/10/01 06:44:58;;;;;;;11.60;6.22;;;15.10;99.90;;;;;;5084723;27;20032;-68
2023/10/01 06:47:26;;;;;;;9.80;5.93;;;15.10;99.90;;;;;;5100218;28;20043;-68
2023/10/01 06:52:28;;;;;;;10.65;6.00;;;15.10;99.90;;;;;;5136557;27;20065;-68
2023/10/01 06:54:59;;;;;;;10.25;5.75;;;15.10;99.90;;;;;;5116762;27;20096;-68
2023/10/01 06:57:28;;;;;;;13.23;5.63;;;15.20;99.90;;;;;;5132192;27;20040;-68
2023/10/01 06:59:56;;;;;;;10.82;6.07;;;15.10;99.90;;;;;;5130987;27;20050;-68
2023/10/01 07:02:23;;;;;;;13.07;6.53;;;15.20;99.90;;;;;;5102152;27;20453;-68
2023/10/01 07:04:56;;;;;;;10.45;6.60;;;15.10;99.90;;;;;;5102114;27;20040;-68
2023/10/01 07:07:26;;;;;;;11.27;6.10;;;15.20;99.90;;;;;;5099745;28;20054;-68
2023/10/01 07:09:56;;;;;;;14.13;6.80;;;15.20;99.90;;;;;;5118304;27;20176;-68
2023/10/01 07:12:23;;;;;;;13.10;6.22;;;15.20;99.90;;;;;;5101344;28;20095;-68
2023/10/01 07:14:50;;;;;;;10.18;5.97;;;15.20;99.90;;;;;;5099189;27;20459;-68
2023/10/01 07:17:28;;;;;;;13.35;6.15;;;15.30;99.90;;;;;;5101973;27;20038;-68
2023/10/01 07:20:00;;;;;;;12.75;6.30;;;15.30;99.90;;;;;;5103390;28;20036;-68
2023/10/01 07:22:32;;;;;;;9.70;5.68;;;15.30;99.90;;;;;;5103162;27;20574;-68
2023/10/01 07:25:03;;;;;;;10.25;5.93;;;15.40;99.90;;;;;;5101770;27;20135;-68
2023/10/01 07:27:29;;;;;;;13.10;6.05;;;15.40;99.90;;;;;;5104314;28;20084;-68
2023/10/01 07:29:56;;;;;;;10.98;6.22;;;15.40;99.90;;;;;;5101663;28;20168;-68
2023/10/01 07:32:24;;;;;;;9.40;5.88;;;15.50;99.90;;;;;;5099877;28;20070;-68
2023/10/01 07:34:59;;;;;;;13.05;6.88;;;15.50;99.90;;;;;;5104959;27;20048;-68
2023/10/01 07:37:31;;;;;;;11.45;5.97;;;15.50;99.90;;;;;;5103133;27;20050;-68
2023/10/01 07:40:09;;;;;;;12.82;6.32;;;15.50;99.90;;;;;;5094018;27;21759;-68
2023/10/01 07:43:18;;;;;;;13.25;6.22;;;15.50;99.90;;;;;;5106589;27;20050;-68
2023/10/01 07:45:24;;;;;;;13.50;7.57;;;15.60;99.90;;;;;;5091521;27;20088;-68
2023/10/01 07:47:50;;;;;;;10.45;6.35;;;15.60;99.90;;;;;;5099929;27;20093;-68
2023/10/01 07:50:16;;;;;;;9.95;6.22;;;15.70;99.90;;;;;;5137299;27;20122;-68
2023/10/01 07:52:44;;;;;;;12.20;6.10;;;15.70;99.90;;;;;;5105558;27;20134;-68
2023/10/01 08:00:41;;;;;;;11.15;5.70;;;16.00;99.90;;;;;;5104120;27;20044;-68
2023/10/01 08:05:48;;;;;;;10.20;5.80;;;16.20;99.90;;;;;;5101377;27;20074;-68
2023/10/01 08:08:15;;;;;;;14.35;6.35;;;16.30;99.90;;;;;;5102549;27;20047;-68
2023/10/01 08:10:43;;;;;;;10.77;5.72;;;16.30;99.90;;;;;;5101971;28;20479;-68
2023/10/01 08:13:23;;;;;;;11.13;5.50;;;16.50;99.90;;;;;;5102116;28;20054;-68
2023/10/01 08:16:01;;;;;;;11.40;6.18;;;16.60;99.90;;;;;;5101382;28;20076;-68
2023/10/01 08:18:34;;;;;;;12.98;6.90;;;16.60;99.90;;;;;;5101713;28;20040;-68
2023/10/01 08:21:15;;;;;;;9.95;5.82;;;16.70;99.90;;;;;;5101256;28;20032;-68
2023/10/01 08:23:54;;;;;;;9.95;5.78;;;16.60;99.90;;;;;;5102098;27;20443;-68
2023/10/01 08:29:06;;;;;;;9.20;5.43;;;16.60;99.90;;;;;;5097770;28;20048;-68
2023/10/01 08:34:23;;;;;;;11.70;5.57;;;16.70;99.90;;;;;;5099932;28;20504;-68
2023/10/01 08:36:56;;;;;;;9.52;5.45;;;16.70;99.90;;;;;;5103623;28;20506;-68
2023/10/01 08:42:10;;;;;;;11.93;6.20;;;16.70;99.90;;;;;;5100742;28;20040;-68
2023/10/01 08:44:45;;;;;;;11.65;5.65;;;16.80;99.90;;;;;;5098166;28;20065;-68
2023/10/01 08:47:32;;;;;;;10.02;5.68;;;16.80;99.90;;;;;;5090756;27;20060;-68
2023/10/01 08:52:57;;;;;;;11.38;5.80;;;17.00;99.90;;;;;;5102186;27;20398;-68
2023/10/01 08:55:35;;;;;;;11.85;5.90;;;17.10;99.90;;;;;;5131061;27;20128;-68
2023/10/01 08:58:41;;;;;;;12.75;6.53;;;17.20;99.90;;;;;;5098299;28;20056;-68
2023/10/01 09:01:12;;;;;;;10.48;5.65;;;17.30;99.90;;;;;;5098321;28;20040;-68
2023/10/01 09:03:47;;;;;;;14.32;5.70;;;17.40;99.90;;;;;;5100674;28;20043;-68
2023/10/01 09:06:28;;;;;;;14.93;6.40;;;17.50;99.90;;;;;;5096398;28;20047;-69
2023/10/01 09:08:59;;;;;;;10.15;6.10;;;17.60;99.90;;;;;;5098081;28;20063;-68
2023/10/01 09:11:41;;;;;;;10.65;5.40;;;17.60;99.90;;;;;;5097244;28;20092;-68
2023/10/01 09:14:15;;;;;;;10.60;6.20;;;17.70;99.90;;;;;;5126741;27;20104;-68
2023/10/01 09:16:45;;;;;;;11.48;5.90;;;17.80;99.90;;;;;;5097287;28;20086;-68
2023/10/01 09:19:31;;;;;;;12.73;6.40;;;17.90;99.90;;;;;;5097011;28;20054;-68
2023/10/01 09:22:07;;;;;;;12.70;5.85;;;18.00;99.90;;;;;;5096618;28;20040;-68
2023/10/01 09:24:41;;;;;;;12.20;6.05;;;18.10;99.90;;;;;;5095880;27;20126;-69
2023/10/01 09:27:09;;;;;;;12.57;6.03;;;18.20;99.90;;;;;;5094632;28;20027;-68
2023/10/01 09:29:45;;;;;;;10.80;6.72;;;18.40;99.90;;;;;;5093206;28;20055;-68
2023/10/01 09:32:13;;;;;;;10.73;5.75;;;18.50;99.90;;;;;;5111547;28;20465;-68
2023/10/01 09:35:03;;;;;;;12.18;6.05;;;18.60;99.90;;;;;;5095126;28;20044;-68
2023/10/01 09:37:42;;;;;;;13.25;6.53;;;18.70;99.90;;;;;;5095393;28;20066;-68
2023/10/01 09:42:57;;;;;;;15.63;7.00;;;18.80;99.90;;;;;;5098837;28;20048;-68
2023/10/01 09:45:29;;;;;;;14.98;6.57;;;18.80;99.90;;;;;;5096683;28;20122;-68
2023/10/01 09:48:04;;;;;;;13.50;6.07;;;18.90;99.90;;;;;;5097388;28;20178;-68
2023/10/01 09:50:39;;;;;;;15.40;6.68;;;18.90;99.90;;;;;;5103547;28;20067;-68
2023/10/01 09:53:15;;;;;;;;;;;19.00;99.90;;;;;;5102133;28;20047;-68
2023/10/01 09:55:48;;;;;;;12.63;6.25;;;19.00;99.90;;;;;;5112599;27;20012;-68
2023/10/01 09:58:20;;;;;;;12.90;6.63;;;19.00;99.90;;;;;;5101661;28;20044;-68
2023/10/01 10:00:48;;;;;;;11.73;6.03;;;19.00;99.90;;;;;;5099933;28;20051;-68
2023/10/01 10:03:16;;;;;;;13.98;7.05;;;19.00;99.90;;;;;;5101345;28;20386;-68
2023/10/01 10:05:43;;;;;;;14.98;7.15;;;19.00;99.90;;;;;;5105896;28;20054;-68
2023/10/01 10:08:26;;;;;;;12.20;6.47;;;19.10;99.90;;;;;;5133839;27;20512;-68
2023/10/01 10:10:55;;;;;;;13.32;6.45;;;19.10;99.90;;;;;;5085408;27;20042;-68
2023/10/01 10:14:00;;;;;;;10.07;6.32;;;19.10;99.90;;;;;;5106260;27;20384;-68
2023/10/01 10:16:31;;;;;;;19.33;7.90;;;19.10;99.90;;;;;;5132937;27;20055;-68
2023/10/01 10:19:23;;;;;;;13.63;7.35;;;19.20;99.90;;;;;;5107316;28;20045;-68
2023/10/01 10:22:16;;;;;;;13.88;7.03;;;19.20;99.90;;;;;;5107490;27;20389;-68
2023/10/01 10:24:47;;;;;;;12.68;7.38;;;19.40;99.90;;;;;;5103869;28;20158;-68
2023/10/01 10:27:26;;;;;;;13.80;6.78;;;19.50;99.90;;;;;;5102243;27;20036;-68
2023/10/01 10:30:00;;;;;;;12.95;7.50;;;19.60;99.90;;;;;;5135957;27;20039;-68
2023/10/01 10:32:42;;;;;;;10.63;6.70;;;19.70;99.90;;;;;;5135172;27;20146;-68
2023/10/01 10:35:12;;;;;;;13.40;7.95;;;19.70;99.90;;;;;;5103399;27;20070;-68
2023/10/01 10:37:38;;;;;;;11.45;6.28;;;19.70;99.90;;;;;;5103044;27;20048;-68
2023/10/01 10:42:58;;;;;;;11.68;6.40;;;19.70;99.90;;;;;;5136098;27;20085;-68
2023/10/01 10:45:31;;;;;;;9.05;5.50;;;19.90;99.90;;;;;;5121382;27;20050;-68
2023/10/01 10:48:04;;;;;;;12.88;6.97;;;19.90;99.90;;;;;;5105048;28;20048;-68
2023/10/01 10:50:50;;;;;;;13.82;6.80;;;20.00;99.90;;;;;;5098324;28;20068;-68
2023/10/01 10:53:20;;;;;;;13.57;7.50;;;19.90;99.90;;;;;;5135986;27;20138;-68
2023/10/01 10:56:06;;;;;;;13.15;6.82;;;19.90;99.90;;;;;;5103587;28;20054;-68
2023/10/01 10:58:39;;;;;;;13.57;6.47;;;20.00;99.90;;;;;;5135836;27;20058;-68
2023/10/01 11:01:15;;;;;;;15.32;7.68;;;20.00;99.90;;;;;;5101960;28;20040;-68
2023/10/01 11:03:49;;;;;;;15.18;6.95;;;20.00;99.90;;;;;;5102850;27;20482;-68
2023/10/01 11:06:19;;;;;;;17.52;6.68;;;20.00;99.90;;;;;;5104657;27;20133;-68
2023/10/01 11:08:53;;;;;;;13.93;7.25;;;20.10;99.90;;;;;;5103497;27;20127;-68
2023/10/01 11:11:39;;;;;;;14.75;6.80;;;20.10;99.90;;;;;;5104482;27;20031;-68
2023/10/01 11:14:11;;;;;;;12.75;7.18;;;20.20;99.90;;;;;;5136169;27;20040;-68
2023/10/01 11:16:40;;;;;;;12.05;6.55;;;20.30;99.90;;;;;;5102586;28;20099;-68
2023/10/01 11:19:13;;;;;;;15.75;6.90;;;20.50;99.90;;;;;;5104845;28;20042;-68
2023/10/01 11:21:58;;;;;;;15.18;6.88;;;20.50;99.90;;;;;;5101944;28;20039;-68
2023/10/01 11:24:34;;;;;;;13.05;7.10;;;20.60;99.90;;;;;;5100372;28;20035;-68
2023/10/01 11:27:11;;;;;;;;;;;20.70;99.90;;;;;;5101015;27;20035;-68
2023/10/01 11:29:38;;;;;;;15.02;6.45;;;20.80;99.90;;;;;;5115906;27;19959;-68
2023/10/01 11:32:05;;;;;;;10.25;6.35;;;21.00;99.90;;;;;;5102140;28;20054;-68
2023/10/01 11:34:55;;;;;;;13.82;7.35;;;21.00;99.90;;;;;;5101748;28;20118;-68
2023/10/01 11:37:27;;;;;;;15.23;7.63;;;21.00;99.90;;;;;;5105343;28;20401;-68
2023/10/01 11:39:54;;;;;;;12.48;7.18;;;21.00;99.90;;;;;;5099876;27;20044;-68
2023/10/01 11:42:35;;;;;;;14.23;7.75;;;21.00;99.90;;;;;;5101580;27;20055;-68
2023/10/01 11:45:28;;;;;;;10.20;5.90;;;21.00;99.90;;;;;;5105001;27;20057;-68
2023/10/01 11:48:19;;;;;;;12.73;7.28;;;21.10;99.90;;;;;;5105470;28;20043;-68
2023/10/01 11:50:51;;;;;;;12.18;6.97;;;21.10;99.90;;;;;;5104350;28;20126;-68
2023/10/01 11:53:28;;;;;;;15.30;7.80;;;21.20;99.90;;;;;;5108996;27;20036;-68
2023/10/01 11:56:01;;;;;;;13.82;7.70;;;21.30;99.90;;;;;;5099545;27;20084;-68
2023/10/01 11:58:27;;;;;;;12.85;7.85;;;21.40;99.90;;;;;;5103462;27;20050;-68
2023/10/01 12:00:56;;;;;;;15.30;6.78;;;21.50;99.90;;;;;;5116756;27;20044;-68
2023/10/01 12:03:22;;;;;;;12.98;6.90;;;21.50;99.90;;;;;;5105742;28;20051;-68
2023/10/01 12:05:48;;;;;;;13.13;7.18;;;21.50;99.90;;;;;;5103422;28;20074;-68
2023/10/01 12:08:17;;;;;;;12.00;6.38;;;21.50;99.90;;;;;;5103074;28;20069;-68
2023/10/01 12:10:44;;;;;;;12.45;6.93;;;21.40;99.90;;;;;;5100963;28;20040;-68
2023/10/01 12:13:11;;;;;;;13.23;7.25;;;21.40;99.90;;;;;;5102012;27;20031;-68
2023/10/01 12:15:57;;;;;;;10.90;7.28;;;21.50;99.90;;;;;;5103465;28;20128;-68
2023/10/01 12:18:36;;;;;;;12.70;7.28;;;21.50;99.90;;;;;;5100861;27;20062;-68
2023/10/01 12:21:24;;;;;;;13.82;7.03;;;21.60;99.90;;;;;;5097980;28;20117;-68
2023/10/01 12:23:49;;;;;;;12.32;7.45;;;21.60;99.90;;;;;;5105065;28;20051;-68
2023/10/01 12:29:11;;;;;;;14.95;7.22;;;21.60;99.90;;;;;;5100861;28;20520;-68
2023/10/01 12:31:25;;;;;;;15.10;7.32;;;21.70;99.90;;;;;;5103769;28;20043;-68
2023/10/01 12:33:58;;;;;;;12.80;6.88;;;21.80;99.90;;;;;;5100174;28;20120;-68
2023/10/01 12:36:44;;;;;;;12.65;7.22;;;21.80;99.90;;;;;;5135551;27;20055;-68
2023/10/01 12:44:33;;;;;;;13.63;6.97;;;22.20;99.90;;;;;;5134743;27;20054;-68
2023/10/01 12:47:08;;;;;;;12.20;6.93;;;22.30;99.90;;;;;;5102571;27;20069;-68
2023/10/01 12:49:35;;;;;;;13.32;6.53;;;22.40;99.90;;;;;;5098671;28;20035;-68
2023/10/01 12:52:02;;;;;;;10.77;6.53;;;22.50;99.90;;;;;;5102504;27;20051;-68
2023/10/01 12:54:28;;;;;;;8.82;5.70;;;22.60;99.90;;;;;;5105186;28;20452;-68
2023/10/01 12:57:09;;;;;;;12.52;7.10;;;22.70;99.90;;;;;;5103908;27;20070;-68
2023/10/01 12:59:49;;;;;;;11.15;6.50;;;22.90;99.90;;;;;;5101367;28;20055;-68
2023/10/01 13:02:40;;;;;;;14.40;6.70;;;23.00;99.90;;;;;;5101342;28;20070;-68
2023/10/01 13:05:22;;;;;;;14.95;7.20;;;23.00;99.90;;;;;;5132057;27;20043;-68
2023/10/01 13:07:53;;;;;;;13.77;6.85;;;23.10;99.90;;;;;;5106667;28;20043;-68
2023/10/01 13:10:33;;;;;;;10.48;5.80;;;23.10;99.90;;;;;;5104881;28;20044;-68
2023/10/01 13:13:01;;;;;;;12.25;6.85;;;23.10;99.90;;;;;;5100784;28;20039;-68
2023/10/01 13:15:29;;;;;;;11.23;6.35;;;23.30;99.90;;;;;;5099642;28;20051;-68
2023/10/01 13:18:15;;;;;;;11.93;6.00;;;23.20;99.90;;;;;;5100308;28;20055;-68
2023/10/01 13:20:58;;;;;;;14.73;7.60;;;23.20;99.90;;;;;;5132139;27;20441;-68
2023/10/01 13:23:28;;;;;;;15.10;7.07;;;23.20;99.90;;;;;;5104032;28;20127;-67
2023/10/01 13:26:09;;;;;;;12.52;7.13;;;23.20;99.90;;;;;;5103511;28;20078;-67
2023/10/01 13:28:56;;;;;;;10.30;6.70;;;23.20;99.90;;;;;;5102971;28;20105;-68
2023/10/01 14:12:11;;;;;;;11.25;6.63;;;22.80;99.90;;;;;;5104598;28;20055;-67
2023/10/01 14:14:37;;;;;;;10.93;6.68;;;22.70;99.90;;;;;;5103503;28;20122;-66
2023/10/01 14:17:15;;;;;;;10.07;6.75;;;22.70;99.90;;;;;;5104076;27;20046;-67
2023/10/01 14:19:52;;;;;;;12.68;7.07;;;22.60;99.90;;;;;;5102990;28;20043;-67
2023/10/01 14:22:20;;;;;;;9.43;6.45;;;22.60;99.90;;;;;;5104995;28;20059;-67
2023/10/01 14:24:49;;;;;;;11.32;7.15;;;22.60;99.90;;;;;;5101317;28;20039;-67
2023/10/01 14:27:24;;;;;;;12.95;6.22;;;22.50;99.90;;;;;;5136544;27;20036;-67
2023/10/01 14:30:00;;;;;;;11.98;6.80;;;22.50;99.90;;;;;;5102956;28;20044;-67
2023/10/01 14:32:36;;;;;;;10.63;6.63;;;22.40;99.90;;;;;;5103934;28;20051;-67
2023/10/01 14:35:14;;;;;;;11.45;6.38;;;22.30;99.90;;;;;;5103016;28;20035;-67
2023/10/01 14:37:53;;;;;;;11.73;6.78;;;22.20;99.90;;;;;;5101965;27;20052;-67
2023/10/01 14:40:26;;;;;;;12.43;7.13;;;22.20;99.90;;;;;;5103789;27;20108;-67
2023/10/01 14:42:59;;;;;;;13.07;7.18;;;22.20;99.90;;;;;;5101956;27;20035;-67
2023/10/01 14:45:33;;;;;;;11.35;6.75;;;22.20;99.90;;;;;;5100950;27;20032;-67
2023/10/01 14:48:09;;;;;;;11.75;7.18;;;22.10;99.90;;;;;;5135494;27;20489;-67
2023/10/01 14:50:40;;;;;;;10.30;7.00;;;22.10;99.90;;;;;;5102713;28;20032;-67